Time;durP1;ratioP1;P1;durP2;ratioP2;P2;SDS_P1;SDS_P2;PMS_P1;PMS_P2;Temp;Humidity;BMP_temperature;BMP_pressure;BME280_temperature;BME280_humidity;BME280_pressure;Samples;Min_cycle;Max_cycle;Signal;HPM_P1;HPM_P2
2024/02/02 00:01:38;;;;;;;13.25;8.05;;;;;;;;;;5022132;28;20029;-51
2024/02/02 00:04:04;;;;;;;12.60;7.60;;;;;;;;;;5009305;28;20026;-54
2024/02/02 00:06:30;;;;;;;11.93;6.95;;;;;;;;;;5010311;28;20022;-53
2024/02/02 00:08:56;;;;;;;12.52;7.80;;;;;;;;;;5027849;28;20686;-51
2024/02/02 00:11:22;;;;;;;13.60;8.13;;;;;;;;;;5029121;28;20136;-53
2024/02/02 00:13:48;;;;;;;15.00;8.93;;;;;;;;;;5044392;22;20049;-60
2024/02/02 00:16:14;;;;;;;13.55;7.95;;;;;;;;;;5028329;28;20025;-61
2024/02/02 00:18:40;;;;;;;38.28;9.18;;;;;;;;;;5029286;28;20018;-60
2024/02/02 00:21:06;;;;;;;21.02;10.23;;;;;;;;;;5027451;28;20075;-60
2024/02/02 00:23:32;;;;;;;12.95;7.53;;;;;;;;;;5028341;28;20052;-61
2024/02/02 00:25:58;;;;;;;14.35;8.57;;;;;;;;;;5027685;28;20057;-57
2024/02/02 00:28:24;;;;;;;14.00;8.50;;;;;;;;;;5028806;28;20033;-61
2024/02/02 00:30:50;;;;;;;13.40;8.10;;;;;;;;;;5028492;28;20052;-61
2024/02/02 00:33:16;;;;;;;16.55;8.07;;;;;;;;;;5028894;28;20051;-61
2024/02/02 00:35:42;;;;;;;12.93;7.53;;;;;;;;;;5029574;28;20479;-60
2024/02/02 00:38:08;;;;;;;12.98;7.78;;;;;;;;;;5029651;28;20069;-61
2024/02/02 00:40:34;;;;;;;13.05;7.65;;;;;;;;;;5028267;28;20488;-58
2024/02/02 00:43:00;;;;;;;12.23;7.30;;;;;;;;;;5027539;28;20057;-57
2024/02/02 00:45:26;;;;;;;12.07;7.00;;;;;;;;;;5029052;28;20098;-56
2024/02/02 00:47:52;;;;;;;13.00;7.85;;;;;;;;;;5029774;28;20075;-57
2024/02/02 00:50:18;;;;;;;12.38;7.25;;;;;;;;;;5029681;28;20436;-54
2024/02/02 00:52:44;;;;;;;14.77;8.82;;;;;;;;;;5027623;28;20065;-57
2024/02/02 00:55:10;;;;;;;17.17;10.48;;;;;;;;;;5029675;28;20021;-58
2024/02/02 00:57:36;;;;;;;12.05;7.00;;;;;;;;;;5029422;28;20529;-57
2024/02/02 01:00:02;;;;;;;12.30;7.32;;;;;;;;;;5029427;28;20056;-57
2024/02/02 01:02:28;;;;;;;15.07;8.88;;;;;;;;;;5027117;28;20025;-57
2024/02/02 01:04:54;;;;;;;13.15;8.02;;;;;;;;;;5028062;28;20095;-59
2024/02/02 01:07:20;;;;;;;11.93;7.00;;;;;;;;;;5029267;28;20072;-55
2024/02/02 01:09:46;;;;;;;11.70;6.85;;;;;;;;;;5029202;28;20080;-58
2024/02/02 01:12:13;;;;;;;12.45;7.13;;;;;;;;;;5028297;28;20029;-56
2024/02/02 01:14:39;;;;;;;16.80;12.40;;;;;;;;;;5028845;28;20561;-56
2024/02/02 01:17:06;;;;;;;13.43;7.47;;;;;;;;;;5029244;28;20600;-58
2024/02/02 01:19:33;;;;;;;12.07;7.07;;;;;;;;;;5029183;28;20705;-59
2024/02/02 01:21:59;;;;;;;12.10;7.30;;;;;;;;;;5028370;28;20025;-57
2024/02/02 01:24:25;;;;;;;12.98;7.68;;;;;;;;;;5029089;28;20021;-59
2024/02/02 01:26:51;;;;;;;12.40;7.45;;;;;;;;;;5029355;28;20091;-56
2024/02/02 01:29:17;;;;;;;12.95;8.13;;;;;;;;;;5029083;28;20033;-57
2024/02/02 01:31:43;;;;;;;12.55;7.45;;;;;;;;;;5028322;28;20487;-57
2024/02/02 01:34:09;;;;;;;12.07;7.18;;;;;;;;;;5029375;28;20066;-61
2024/02/02 01:36:36;;;;;;;13.10;7.78;;;;;;;;;;5029494;28;20021;-57
2024/02/02 01:39:04;;;;;;;11.75;6.85;;;;;;;;;;5029171;28;20030;-58
2024/02/02 01:41:30;;;;;;;13.48;8.15;;;;;;;;;;5028757;28;20115;-56
2024/02/02 01:43:56;;;;;;;12.30;7.18;;;;;;;;;;5028105;28;20025;-57
2024/02/02 01:46:22;;;;;;;13.25;8.88;;;;;;;;;;5029691;28;20049;-59
2024/02/02 01:48:48;;;;;;;13.88;8.93;;;;;;;;;;5029630;28;20072;-57
2024/02/02 01:51:14;;;;;;;12.93;7.78;;;;;;;;;;5029611;28;20036;-58
2024/02/02 01:53:42;;;;;;;13.80;7.90;;;;;;;;;;5029880;28;20474;-58
2024/02/02 01:56:08;;;;;;;13.13;7.50;;;;;;;;;;5029987;28;20018;-58
2024/02/02 01:58:34;;;;;;;13.13;8.57;;;;;;;;;;5032355;28;20032;-58
2024/02/02 02:01:00;;;;;;;12.55;7.28;;;;;;;;;;5033233;28;20040;-61
2024/02/02 02:03:26;;;;;;;13.27;8.48;;;;;;;;;;5032997;28;20049;-58
2024/02/02 02:05:53;;;;;;;13.30;7.80;;;;;;;;;;5032343;28;20590;-58
2024/02/02 02:08:19;;;;;;;13.05;7.85;;;;;;;;;;5033279;28;20045;-56
2024/02/02 02:10:45;;;;;;;14.00;8.55;;;;;;;;;;5033303;28;20025;-57
2024/02/02 02:13:11;;;;;;;13.25;7.88;;;;;;;;;;5032485;28;20487;-57
2024/02/02 02:15:38;;;;;;;12.95;7.53;;;;;;;;;;5032832;28;20072;-59
2024/02/02 02:18:04;;;;;;;15.80;9.55;;;;;;;;;;5032168;28;20029;-61
2024/02/02 02:20:30;;;;;;;12.82;7.50;;;;;;;;;;5030957;28;20034;-59
2024/02/02 02:22:56;;;;;;;13.10;7.80;;;;;;;;;;5029995;28;20029;-59
2024/02/02 02:25:22;;;;;;;13.02;7.60;;;;;;;;;;5032023;28;20029;-59
2024/02/02 02:27:49;;;;;;;13.20;8.00;;;;;;;;;;5032104;28;20384;-59
2024/02/02 02:30:15;;;;;;;12.85;7.57;;;;;;;;;;5031853;28;20033;-58
2024/02/02 02:32:41;;;;;;;12.23;7.15;;;;;;;;;;5031229;28;20539;-59
2024/02/02 02:35:08;;;;;;;12.50;7.35;;;;;;;;;;5031840;28;20136;-57
2024/02/02 02:37:34;;;;;;;15.10;8.88;;;;;;;;;;5032042;28;20037;-59
2024/02/02 02:40:00;;;;;;;12.98;7.90;;;;;;;;;;5031782;28;20040;-59
2024/02/02 02:42:26;;;;;;;12.70;7.40;;;;;;;;;;5029523;28;20034;-60
2024/02/02 02:44:52;;;;;;;14.38;9.23;;;;;;;;;;5031827;28;20072;-60
2024/02/02 02:47:19;;;;;;;13.05;7.68;;;;;;;;;;5031618;28;20028;-59
2024/02/02 02:49:45;;;;;;;13.23;8.82;;;;;;;;;;5031638;28;20442;-59
2024/02/02 02:52:11;;;;;;;13.18;7.75;;;;;;;;;;5030806;28;20021;-58
2024/02/02 02:54:37;;;;;;;13.07;7.68;;;;;;;;;;5031604;28;20078;-60
2024/02/02 02:57:03;;;;;;;13.30;7.90;;;;;;;;;;5031609;28;20052;-61
2024/02/02 02:59:30;;;;;;;13.10;7.75;;;;;;;;;;5030030;28;20022;-59
2024/02/02 03:01:56;;;;;;;15.15;9.32;;;;;;;;;;5030722;28;20057;-59
2024/02/02 03:04:22;;;;;;;13.18;7.80;;;;;;;;;;5031312;28;20056;-59
2024/02/02 03:06:48;;;;;;;13.80;8.60;;;;;;;;;;5031446;28;20518;-59
2024/02/02 03:09:15;;;;;;;13.43;8.07;;;;;;;;;;5031243;28;20025;-56
2024/02/02 03:11:41;;;;;;;13.25;7.95;;;;;;;;;;5030415;28;20033;-57
2024/02/02 03:14:07;;;;;;;13.52;8.45;;;;;;;;;;5031137;28;20025;-59
2024/02/02 03:16:33;;;;;;;14.88;8.73;;;;;;;;;;5031275;28;20021;-60
2024/02/02 03:18:59;;;;;;;13.43;8.35;;;;;;;;;;5031068;28;20080;-59
2024/02/02 03:21:25;;;;;;;22.08;9.63;;;;;;;;;;5030303;28;20052;-58
2024/02/02 03:23:51;;;;;;;17.10;10.05;;;;;;;;;;5030864;28;20033;-58
2024/02/02 03:26:17;;;;;;;13.50;8.45;;;;;;;;;;5030968;28;20465;-59
2024/02/02 03:28:43;;;;;;;13.80;9.07;;;;;;;;;;5030979;28;20032;-57
2024/02/02 03:31:09;;;;;;;16.95;9.27;;;;;;;;;;5030632;28;20037;-59
2024/02/02 03:33:35;;;;;;;13.63;8.73;;;;;;;;;;5030344;28;20040;-57
2024/02/02 03:36:01;;;;;;;13.68;9.07;;;;;;;;;;5030843;28;20089;-58
2024/02/02 03:38:27;;;;;;;13.60;8.80;;;;;;;;;;5030600;28;20036;-58
2024/02/02 03:40:53;;;;;;;13.55;8.50;;;;;;;;;;5030409;28;20036;-59
2024/02/02 03:43:19;;;;;;;13.60;8.63;;;;;;;;;;5029732;28;20025;-59
2024/02/02 03:45:45;;;;;;;13.90;9.13;;;;;;;;;;5030389;28;20032;-59
2024/02/02 03:48:11;;;;;;;14.93;8.90;;;;;;;;;;5030534;28;20080;-58
2024/02/02 03:50:37;;;;;;;13.55;8.50;;;;;;;;;;5030409;28;20033;-60
2024/02/02 03:53:03;;;;;;;13.55;8.45;;;;;;;;;;5029681;28;20045;-61
2024/02/02 03:55:29;;;;;;;13.45;8.45;;;;;;;;;;5030331;28;20030;-57
2024/02/02 03:57:56;;;;;;;13.65;8.80;;;;;;;;;;5030311;28;20399;-59
2024/02/02 04:00:22;;;;;;;16.92;11.38;;;;;;;;;;5030052;28;20033;-60
2024/02/02 04:02:48;;;;;;;13.75;9.15;;;;;;;;;;5029549;28;20462;-56
2024/02/02 04:05:17;;;;;;;13.80;9.38;;;;;;;;;;5030142;28;20117;-60
2024/02/02 04:07:43;;;;;;;14.00;9.80;;;;;;;;;;5028787;28;20108;-59
2024/02/02 04:10:09;;;;;;;14.18;10.25;;;;;;;;;;5030121;28;20045;-60
2024/02/02 04:12:35;;;;;;;21.02;10.70;;;;;;;;;;5029006;28;20450;-61
2024/02/02 04:15:01;;;;;;;14.10;9.90;;;;;;;;;;5029952;28;20018;-60
2024/02/02 04:17:27;;;;;;;13.85;9.55;;;;;;;;;;5029601;28;20108;-61
2024/02/02 04:19:53;;;;;;;13.90;9.57;;;;;;;;;;5029191;28;20041;-58
2024/02/02 04:22:19;;;;;;;14.00;9.90;;;;;;;;;;5029181;28;20040;-60
2024/02/02 04:24:45;;;;;;;14.02;10.10;;;;;;;;;;5029828;28;20021;-61
2024/02/02 04:27:12;;;;;;;14.50;11.15;;;;;;;;;;5029913;28;20100;-58
2024/02/02 04:29:38;;;;;;;14.95;11.57;;;;;;;;;;5029827;28;20445;-62
2024/02/02 04:32:04;;;;;;;14.23;10.38;;;;;;;;;;5029206;28;20361;-60
2024/02/02 04:34:30;;;;;;;14.13;10.32;;;;;;;;;;5029889;28;20076;-59
2024/02/02 04:36:56;;;;;;;14.93;11.57;;;;;;;;;;5028230;28;20025;-58
2024/02/02 04:39:23;;;;;;;14.23;10.40;;;;;;;;;;5029622;28;20104;-59
2024/02/02 04:41:49;;;;;;;14.57;11.27;;;;;;;;;;5026873;28;20025;-58
2024/02/02 04:44:15;;;;;;;14.10;9.98;;;;;;;;;;5029469;28;20029;-59
2024/02/02 04:46:41;;;;;;;14.13;10.20;;;;;;;;;;5029509;28;20025;-59
2024/02/02 04:49:07;;;;;;;14.90;11.57;;;;;;;;;;5029383;28;20505;-55
2024/02/02 04:51:33;;;;;;;16.65;11.00;;;;;;;;;;5027273;28;20080;-60
2024/02/02 04:53:59;;;;;;;14.93;10.77;;;;;;;;;;5027786;28;20032;-60
2024/02/02 04:56:25;;;;;;;14.25;10.57;;;;;;;;;;5027863;28;20022;-59
2024/02/02 04:58:53;;;;;;;14.20;10.50;;;;;;;;;;5029171;28;20021;-59
2024/02/02 05:01:19;;;;;;;14.30;10.63;;;;;;;;;;5027516;28;20037;-60
2024/02/02 05:03:46;;;;;;;14.73;11.80;;;;;;;;;;5028806;28;20057;-58
2024/02/02 05:06:16;;;;;;;14.90;12.25;;;;;;;;;;5029901;28;20048;-58
2024/02/02 05:08:42;;;;;;;15.10;12.90;;;;;;;;;;5029972;28;20021;-59
2024/02/02 05:11:08;;;;;;;15.23;13.10;;;;;;;;;;5029264;28;20025;-58
2024/02/02 05:13:34;;;;;;;15.00;12.80;;;;;;;;;;5028892;28;20039;-58
2024/02/02 05:16:00;;;;;;;15.77;13.27;;;;;;;;;;5029412;28;20025;-59
2024/02/02 05:18:26;;;;;;;15.60;12.75;;;;;;;;;;5029494;28;20057;-59
2024/02/02 05:20:52;;;;;;;14.90;12.45;;;;;;;;;;5029072;28;20030;-59
2024/02/02 05:23:18;;;;;;;15.00;12.77;;;;;;;;;;5028803;28;20491;-58
2024/02/02 05:25:44;;;;;;;15.73;13.32;;;;;;;;;;5028366;28;20053;-57
2024/02/02 05:28:10;;;;;;;15.20;13.23;;;;;;;;;;5028050;28;20087;-58
2024/02/02 05:30:37;;;;;;;15.50;13.80;;;;;;;;;;5029199;28;20033;-57
2024/02/02 05:33:04;;;;;;;15.30;13.43;;;;;;;;;;5031221;28;20029;-56
2024/02/02 05:35:30;;;;;;;15.40;13.60;;;;;;;;;;5033650;28;20056;-58
2024/02/02 05:37:56;;;;;;;15.27;13.27;;;;;;;;;;5033193;28;20080;-59
2024/02/02 05:40:22;;;;;;;15.35;13.55;;;;;;;;;;5033340;28;20468;-59
2024/02/02 05:42:48;;;;;;;15.60;13.90;;;;;;;;;;5032704;28;20026;-60
2024/02/02 05:45:14;;;;;;;25.10;21.67;;;;;;;;;;5033930;28;20021;-59
2024/02/02 05:47:40;;;;;;;16.23;14.52;;;;;;;;;;5033840;28;20140;-58
2024/02/02 05:50:06;;;;;;;19.50;14.40;;;;;;;;;;5033868;28;20034;-59
2024/02/02 05:52:32;;;;;;;15.70;14.00;;;;;;;;;;5032872;28;20441;-55
2024/02/02 05:54:58;;;;;;;15.40;13.57;;;;;;;;;;5032372;28;20044;-60
2024/02/02 05:57:24;;;;;;;16.48;14.60;;;;;;;;;;5033799;28;20378;-60
2024/02/02 05:59:51;;;;;;;15.30;13.38;;;;;;;;;;5032366;28;20017;-58
2024/02/02 06:02:17;;;;;;;19.48;14.52;;;;;;;;;;5032446;28;20033;-54
2024/02/02 06:04:46;;;;;;;20.88;14.85;;;;;;;;;;5033353;28;20046;-59
2024/02/02 06:07:12;;;;;;;17.80;14.98;;;;;;;;;;5033096;28;20049;-57
2024/02/02 06:09:38;;;;;;;15.63;13.93;;;;;;;;;;5033531;28;20037;-55
2024/02/02 06:12:05;;;;;;;15.70;14.00;;;;;;;;;;5032562;28;20040;-60
2024/02/02 06:14:31;;;;;;;15.32;13.48;;;;;;;;;;5048025;22;20109;-48
2024/02/02 06:16:57;;;;;;;15.40;13.70;;;;;;;;;;5032753;28;20037;-48
2024/02/02 06:19:23;;;;;;;15.60;13.60;;;;;;;;;;5031397;28;20548;-49
2024/02/02 06:21:49;;;;;;;15.75;14.05;;;;;;;;;;5034570;28;20029;-55
2024/02/02 06:24:15;;;;;;;17.58;14.60;;;;;;;;;;5035405;28;20484;-51
2024/02/02 06:26:41;;;;;;;16.63;14.52;;;;;;;;;;5033068;28;20022;-46
2024/02/02 06:29:07;;;;;;;15.50;13.00;;;;;;;;;;5032862;28;20022;-49
2024/02/02 06:31:33;;;;;;;16.48;14.60;;;;;;;;;;5031471;28;20033;-50
2024/02/02 06:33:59;;;;;;;15.40;13.25;;;;;;;;;;5032460;28;20045;-50
2024/02/02 06:36:26;;;;;;;15.10;13.00;;;;;;;;;;5032378;28;20026;-52
2024/02/02 06:38:53;;;;;;;15.40;13.55;;;;;;;;;;5047789;28;20028;-50
2024/02/02 06:41:19;;;;;;;15.10;12.85;;;;;;;;;;5047490;28;20033;-52
2024/02/02 06:43:45;;;;;;;15.60;13.88;;;;;;;;;;5031651;28;20021;-51
2024/02/02 06:46:11;;;;;;;15.27;13.15;;;;;;;;;;5032541;28;20033;-50
2024/02/02 06:48:37;;;;;;;15.10;13.10;;;;;;;;;;5033371;28;20029;-50
2024/02/02 06:51:03;;;;;;;15.32;13.32;;;;;;;;;;5047162;28;20033;-51
2024/02/02 06:53:30;;;;;;;15.10;12.98;;;;;;;;;;5031453;28;20113;-51
2024/02/02 06:55:56;;;;;;;19.42;17.25;;;;;;;;;;5032322;28;20021;-48
2024/02/02 06:58:45;;;;;;;17.00;14.50;;;;;;;;;;5047378;28;20024;-53
2024/02/02 07:01:11;;;;;;;16.10;13.02;;;;;;;;;;5026375;28;20037;-52
2024/02/02 07:03:37;;;;;;;16.40;14.57;;;;;;;;;;5031714;28;20083;-50
2024/02/02 07:06:06;;;;;;;15.77;13.05;;;;;;;;;;5032280;28;20104;-48
2024/02/02 07:08:32;;;;;;;29.42;13.57;;;;;;;;;;5047469;28;20068;-49
2024/02/02 07:11:07;;;;;;;18.98;12.05;;;;;;;;;;5031844;28;20273;-50
2024/02/02 07:13:41;;;;;;;18.20;12.35;;;;;;;;;;5031233;28;20039;-52
2024/02/02 07:16:13;;;;;;;16.50;12.88;;;;;;;;;;5031847;28;20021;-50
2024/02/02 07:18:42;;;;;;;16.27;12.85;;;;;;;;;;5031854;28;20091;-52
2024/02/02 07:21:08;;;;;;;;;;;;;;;;;;5047340;28;20029;-51
2024/02/02 07:23:36;;;;;;;14.20;10.50;;;;;;;;;;5030951;28;20128;-54
2024/02/02 07:26:06;;;;;;;26.07;13.50;;;;;;;;;;5031819;28;20052;-51
2024/02/02 07:28:32;;;;;;;14.40;10.95;;;;;;;;;;5031452;28;20399;-50
2024/02/02 07:30:59;;;;;;;14.40;10.70;;;;;;;;;;5031209;28;20037;-51
2024/02/02 07:33:31;;;;;;;16.00;11.95;;;;;;;;;;5031404;28;20017;-53
2024/02/02 07:35:57;;;;;;;14.70;11.95;;;;;;;;;;5046810;28;20508;-49
2024/02/02 07:38:59;;;;;;;14.40;10.80;;;;;;;;;;5031545;28;20037;-50
2024/02/02 07:41:26;;;;;;;14.73;10.00;;;;;;;;;;4972434;28;20026;-49
2024/02/02 07:43:56;;;;;;;17.05;12.70;;;;;;;;;;5023420;28;20041;-54
2024/02/02 07:46:22;;;;;;;14.20;10.30;;;;;;;;;;5031940;28;20388;-50
2024/02/02 07:48:49;;;;;;;18.15;11.30;;;;;;;;;;5045557;28;20029;-49
2024/02/02 07:51:17;;;;;;;21.42;13.23;;;;;;;;;;5050580;28;20109;-50
2024/02/02 07:53:45;;;;;;;14.40;11.05;;;;;;;;;;5050521;28;20435;-48
2024/02/02 07:56:11;;;;;;;18.00;11.75;;;;;;;;;;5050085;28;20017;-51
2024/02/02 07:58:37;;;;;;;15.35;11.38;;;;;;;;;;5049764;28;20029;-52
2024/02/02 08:01:03;;;;;;;15.43;10.63;;;;;;;;;;5050629;28;20025;-50
2024/02/02 08:03:29;;;;;;;16.85;11.70;;;;;;;;;;5050511;28;20234;-53
2024/02/02 08:05:55;;;;;;;14.15;10.25;;;;;;;;;;5051024;28;20036;-52
2024/02/02 08:08:21;;;;;;;14.30;10.38;;;;;;;;;;5050754;28;20032;-47
2024/02/02 08:10:47;;;;;;;14.68;10.73;;;;;;;;;;5050243;28;20107;-54
2024/02/02 08:13:14;;;;;;;19.85;11.85;;;;;;;;;;5049834;28;20036;-49
2024/02/02 08:15:40;;;;;;;19.85;11.95;;;;;;;;;;5050464;28;20045;-52
2024/02/02 08:18:07;;;;;;;14.40;10.25;;;;;;;;;;5049500;28;20029;-49
2024/02/02 08:20:33;;;;;;;15.30;10.93;;;;;;;;;;5049607;28;20601;-56
2024/02/02 08:22:59;;;;;;;13.88;9.50;;;;;;;;;;5049119;28;20371;-54
2024/02/02 08:25:25;;;;;;;15.95;9.90;;;;;;;;;;5050355;28;20032;-51
2024/02/02 08:27:51;;;;;;;14.93;11.20;;;;;;;;;;5050177;28;20043;-53
2024/02/02 08:30:18;;;;;;;14.95;10.32;;;;;;;;;;5049055;28;20021;-52
2024/02/02 08:32:51;;;;;;;13.70;9.10;;;;;;;;;;5049277;28;20017;-48
2024/02/02 08:35:17;;;;;;;14.18;10.15;;;;;;;;;;5050270;28;20054;-53
2024/02/02 08:37:43;;;;;;;14.90;10.57;;;;;;;;;;5049010;28;20487;-51
2024/02/02 08:40:29;;;;;;;14.13;9.30;;;;;;;;;;5050573;28;20475;-53
2024/02/02 08:42:55;;;;;;;14.05;10.13;;;;;;;;;;5038838;28;20044;-52
2024/02/02 08:45:41;;;;;;;26.75;10.95;;;;;;;;;;5050271;28;20092;-48
2024/02/02 08:48:30;;;;;;;14.55;10.68;;;;;;;;;;5050233;28;20100;-51
2024/02/02 08:50:59;;;;;;;15.77;10.77;;;;;;;;;;5021277;28;20182;-55
2024/02/02 08:53:26;;;;;;;16.05;10.27;;;;;;;;;;5049544;28;20027;-54
2024/02/02 08:55:54;;;;;;;15.10;9.85;;;;;;;;;;5048660;28;20024;-48
2024/02/02 08:58:21;;;;;;;;;;;;;;;;;;5050517;28;20494;-52
2024/02/02 09:00:49;;;;;;;15.32;10.90;;;;;;;;;;5049786;28;19908;-54
2024/02/02 09:03:27;;;;;;;27.70;14.07;;;;;;;;;;5049430;28;20491;-52
2024/02/02 09:05:54;;;;;;;14.77;9.80;;;;;;;;;;5048407;28;20048;-50
2024/02/02 09:08:27;;;;;;;15.85;10.63;;;;;;;;;;5050302;28;20025;-50
2024/02/02 09:10:59;;;;;;;20.10;10.93;;;;;;;;;;5049551;28;20028;-49
2024/02/02 09:13:27;;;;;;;21.77;12.50;;;;;;;;;;5023545;28;20022;-53
2024/02/02 09:15:53;;;;;;;14.05;9.55;;;;;;;;;;5025397;28;20032;-48
2024/02/02 09:18:40;;;;;;;14.20;9.80;;;;;;;;;;5029698;28;20611;-56
2024/02/02 09:21:07;;;;;;;15.23;10.93;;;;;;;;;;5019608;28;20029;-55
2024/02/02 09:23:33;;;;;;;21.40;10.82;;;;;;;;;;5009333;28;20038;-55
2024/02/02 09:26:11;;;;;;;17.63;12.30;;;;;;;;;;5010210;28;20034;-54
2024/02/02 09:28:40;;;;;;;13.77;9.13;;;;;;;;;;5012003;28;20691;-54
2024/02/02 09:31:06;;;;;;;14.10;9.32;;;;;;;;;;5029526;28;20022;-53
2024/02/02 09:33:32;;;;;;;13.95;9.43;;;;;;;;;;5028663;28;20026;-55
2024/02/02 09:35:59;;;;;;;22.33;13.73;;;;;;;;;;5028651;28;20394;-55
2024/02/02 09:38:25;;;;;;;14.48;9.50;;;;;;;;;;5028829;28;20606;-50
2024/02/02 09:41:01;;;;;;;14.10;9.30;;;;;;;;;;5028269;28;20480;-55
2024/02/02 09:43:45;;;;;;;14.00;8.85;;;;;;;;;;5029331;28;20807;-53
2024/02/02 09:46:20;;;;;;;14.82;10.07;;;;;;;;;;5023597;28;20152;-53
2024/02/02 09:48:55;;;;;;;26.27;12.57;;;;;;;;;;5008824;28;20030;-49
2024/02/02 09:51:22;;;;;;;18.55;10.35;;;;;;;;;;5009245;28;20369;-46
2024/02/02 09:53:51;;;;;;;15.63;11.35;;;;;;;;;;5008625;28;20018;-52
2024/02/02 09:56:17;;;;;;;15.18;12.00;;;;;;;;;;5009642;28;20176;-48
2024/02/02 09:58:54;;;;;;;17.80;11.45;;;;;;;;;;5009666;28;20080;-46
2024/02/02 10:01:34;;;;;;;16.17;10.38;;;;;;;;;;5007833;28;20369;-48
2024/02/02 10:04:18;;;;;;;14.13;9.63;;;;;;;;;;5009843;28;20484;-52
2024/02/02 10:06:58;;;;;;;15.05;10.45;;;;;;;;;;5009623;28;20030;-53
2024/02/02 10:09:33;;;;;;;16.05;11.77;;;;;;;;;;5010071;28;20026;-53
2024/02/02 10:11:59;;;;;;;14.55;9.88;;;;;;;;;;5011888;28;20056;-52
2024/02/02 10:14:37;;;;;;;14.57;10.25;;;;;;;;;;5027602;28;20178;-54
2024/02/02 10:17:12;;;;;;;15.85;11.20;;;;;;;;;;5027513;28;20445;-51
2024/02/02 10:19:57;;;;;;;14.60;9.77;;;;;;;;;;5032110;28;20032;-56
2024/02/02 10:22:38;;;;;;;31.88;12.73;;;;;;;;;;5031896;28;20029;-53
2024/02/02 10:25:05;;;;;;;16.65;12.30;;;;;;;;;;5032615;28;20033;-55
2024/02/02 10:27:31;;;;;;;16.67;12.38;;;;;;;;;;5032870;28;20072;-56
2024/02/02 10:30:09;;;;;;;15.75;10.40;;;;;;;;;;5032554;28;20466;-51
2024/02/02 10:32:44;;;;;;;14.95;11.05;;;;;;;;;;5031718;28;20029;-55
2024/02/02 10:35:29;;;;;;;18.38;10.70;;;;;;;;;;5032588;28;20025;-53
2024/02/02 10:37:57;;;;;;;17.30;10.10;;;;;;;;;;5031020;28;20076;-49
2024/02/02 10:40:33;;;;;;;19.52;11.40;;;;;;;;;;5032706;28;20097;-51
2024/02/02 10:43:10;;;;;;;14.40;10.80;;;;;;;;;;5030695;28;20025;-55
2024/02/02 10:45:36;;;;;;;20.33;12.05;;;;;;;;;;5032232;28;20036;-55
2024/02/02 10:48:16;;;;;;;19.10;12.48;;;;;;;;;;5032325;28;20136;-55
2024/02/02 10:50:57;;;;;;;15.27;10.52;;;;;;;;;;5031923;28;20120;-57
2024/02/02 10:53:32;;;;;;;18.42;12.02;;;;;;;;;;5031899;28;20029;-52
2024/02/02 10:56:09;;;;;;;23.80;14.32;;;;;;;;;;5032406;28;20429;-55
2024/02/02 10:58:49;;;;;;;22.15;12.40;;;;;;;;;;5032563;28;20564;-51
2024/02/02 11:01:32;;;;;;;14.75;9.80;;;;;;;;;;5032182;28;20057;-55
2024/02/02 11:04:03;;;;;;;16.88;10.82;;;;;;;;;;5032465;28;20033;-54
2024/02/02 11:06:46;;;;;;;20.05;14.13;;;;;;;;;;5031999;28;20030;-56
2024/02/02 11:09:23;;;;;;;21.95;11.63;;;;;;;;;;5026595;28;20431;-55
2024/02/02 11:11:56;;;;;;;14.20;9.40;;;;;;;;;;5024324;28;20030;-57
2024/02/02 11:14:30;;;;;;;28.40;10.48;;;;;;;;;;5026892;28;20059;-53
2024/02/02 11:17:10;;;;;;;27.40;10.85;;;;;;;;;;5026678;28;20445;-56
2024/02/02 11:20:04;;;;;;;14.32;9.63;;;;;;;;;;5028105;28;20021;-54
2024/02/02 11:22:30;;;;;;;17.15;11.70;;;;;;;;;;5025911;28;20079;-58
2024/02/02 11:25:03;;;;;;;13.80;8.77;;;;;;;;;;5028300;28;20395;-57
2024/02/02 11:27:49;;;;;;;18.15;12.02;;;;;;;;;;5029453;28;20507;-55
2024/02/02 11:30:45;;;;;;;14.02;9.38;;;;;;;;;;5018921;28;20122;-53
2024/02/02 11:33:11;;;;;;;14.85;9.73;;;;;;;;;;5022108;28;20117;-52
2024/02/02 11:35:45;;;;;;;13.70;8.40;;;;;;;;;;5031318;28;20108;-56
2024/02/02 11:38:12;;;;;;;15.00;8.98;;;;;;;;;;5031403;28;20026;-55
2024/02/02 11:40:38;;;;;;;13.25;8.02;;;;;;;;;;5031320;28;20029;-58
2024/02/02 11:43:06;;;;;;;17.58;11.95;;;;;;;;;;5031490;28;20498;-54
2024/02/02 11:45:37;;;;;;;14.10;9.38;;;;;;;;;;5032224;28;20510;-54
2024/02/02 11:48:03;;;;;;;24.30;13.52;;;;;;;;;;5031318;28;20025;-49
2024/02/02 11:50:43;;;;;;;14.40;10.20;;;;;;;;;;5029605;28;20049;-54
2024/02/02 11:53:31;;;;;;;15.40;10.80;;;;;;;;;;5030284;28;20502;-49
2024/02/02 11:55:58;;;;;;;;;;;;;;;;;;5031756;28;20098;-56
2024/02/02 11:58:24;;;;;;;18.70;10.32;;;;;;;;;;5030906;28;19986;-54
2024/02/02 12:01:00;;;;;;;25.10;11.52;;;;;;;;;;5030603;28;20052;-56
2024/02/02 12:03:26;;;;;;;15.07;10.57;;;;;;;;;;5029761;28;20517;-48
2024/02/02 12:06:00;;;;;;;17.33;12.35;;;;;;;;;;5029827;28;20039;-47
2024/02/02 12:08:36;;;;;;;17.33;11.65;;;;;;;;;;5036471;28;20037;-48
2024/02/02 12:11:03;;;;;;;13.43;8.25;;;;;;;;;;5025907;28;20572;-50
2024/02/02 12:13:31;;;;;;;16.83;10.27;;;;;;;;;;5022888;28;20041;-56
2024/02/02 12:15:57;;;;;;;14.95;9.20;;;;;;;;;;5029510;28;20483;-52
2024/02/02 12:18:23;;;;;;;13.55;8.50;;;;;;;;;;5022896;28;20105;-56
2024/02/02 12:20:49;;;;;;;15.95;10.88;;;;;;;;;;5027535;28;20022;-54
2024/02/02 12:23:16;;;;;;;14.55;10.10;;;;;;;;;;5020945;28;20029;-52
2024/02/02 12:25:42;;;;;;;16.25;10.80;;;;;;;;;;5030476;28;20032;-53
2024/02/02 12:28:08;;;;;;;17.00;11.15;;;;;;;;;;5030236;28;20105;-52
2024/02/02 12:30:34;;;;;;;14.40;9.30;;;;;;;;;;5029997;28;20033;-53
2024/02/02 12:33:04;;;;;;;17.55;11.20;;;;;;;;;;5028095;28;20021;-57
2024/02/02 12:35:30;;;;;;;15.35;8.85;;;;;;;;;;5030057;28;20022;-51
2024/02/02 12:37:57;;;;;;;14.75;9.82;;;;;;;;;;5030062;28;20083;-51
2024/02/02 12:40:23;;;;;;;15.82;11.43;;;;;;;;;;5028749;28;20021;-49
2024/02/02 12:42:50;;;;;;;18.10;11.32;;;;;;;;;;5028132;28;20108;-53
2024/02/02 12:45:17;;;;;;;21.85;12.45;;;;;;;;;;5030259;28;20087;-50
2024/02/02 12:47:50;;;;;;;16.40;9.93;;;;;;;;;;5029955;28;20376;-55
2024/02/02 12:50:17;;;;;;;15.95;11.05;;;;;;;;;;5028503;28;20025;-54
2024/02/02 12:52:50;;;;;;;16.02;11.15;;;;;;;;;;5026522;28;20105;-56
2024/02/02 12:55:16;;;;;;;17.50;10.27;;;;;;;;;;5028718;28;20107;-50
2024/02/02 12:57:42;;;;;;;15.68;11.30;;;;;;;;;;5029689;28;20482;-45
2024/02/02 13:00:14;;;;;;;18.85;11.65;;;;;;;;;;5029576;28;20526;-48
2024/02/02 13:02:41;;;;;;;21.17;13.55;;;;;;;;;;5027698;28;20048;-52
2024/02/02 13:05:10;;;;;;;16.23;10.50;;;;;;;;;;5019865;28;20108;-49
2024/02/02 13:07:36;;;;;;;;;;;;;;;;;;5042141;28;20450;-53
2024/02/02 13:10:02;;;;;;;16.10;11.30;;;;;;;;;;5029960;28;19909;-51
2024/02/02 13:12:29;;;;;;;26.90;11.25;;;;;;;;;;5027857;28;20479;-52
2024/02/02 13:15:06;;;;;;;15.88;11.13;;;;;;;;;;5049348;28;20052;-51
2024/02/02 13:17:33;;;;;;;15.55;10.45;;;;;;;;;;5050126;28;20028;-49
2024/02/02 13:20:08;;;;;;;14.93;10.25;;;;;;;;;;5049959;28;20128;-47
2024/02/02 13:22:37;;;;;;;13.90;8.90;;;;;;;;;;5047759;28;20025;-46
2024/02/02 13:25:03;;;;;;;;;;;;;;;;;;5050206;28;20023;-50
2024/02/02 13:27:30;;;;;;;17.02;10.43;;;;;;;;;;5049644;28;19909;-51
2024/02/02 13:30:02;;;;;;;14.38;9.38;;;;;;;;;;5049638;28;20471;-51
2024/02/02 13:32:30;;;;;;;21.17;12.60;;;;;;;;;;5049016;28;20116;-50
2024/02/02 13:35:00;;;;;;;19.33;12.02;;;;;;;;;;5049737;28;20013;-48
2024/02/02 13:37:29;;;;;;;15.13;10.88;;;;;;;;;;5049602;28;20025;-47
2024/02/02 13:39:57;;;;;;;28.58;15.35;;;;;;;;;;5049559;28;20025;-50
2024/02/02 13:42:24;;;;;;;15.03;10.37;;;;;;;;;;5048786;28;20066;-48
2024/02/02 13:44:50;;;;;;;15.68;11.27;;;;;;;;;;5049281;28;20025;-48
2024/02/02 13:47:20;;;;;;;15.98;10.77;;;;;;;;;;5049238;28;20028;-49
2024/02/02 13:49:49;;;;;;;18.73;12.18;;;;;;;;;;5035160;28;20031;-49
2024/02/02 13:52:17;;;;;;;14.95;10.15;;;;;;;;;;5046701;28;20037;-53
2024/02/02 13:54:43;;;;;;;15.85;10.32;;;;;;;;;;5050287;28;20025;-48
2024/02/02 13:57:11;;;;;;;27.30;16.42;;;;;;;;;;5033446;28;20494;-52
2024/02/02 13:59:37;;;;;;;14.23;10.50;;;;;;;;;;5032328;28;20512;-49
2024/02/02 14:02:06;;;;;;;15.65;10.88;;;;;;;;;;5032894;28;20082;-48
2024/02/02 14:04:33;;;;;;;14.88;9.93;;;;;;;;;;5033041;28;20075;-49
2024/02/02 14:06:59;;;;;;;19.75;12.32;;;;;;;;;;5035036;28;20084;-49
2024/02/02 14:09:25;;;;;;;14.10;9.20;;;;;;;;;;5051857;28;20446;-49
2024/02/02 14:11:59;;;;;;;18.10;11.43;;;;;;;;;;5052148;28;20151;-51
2024/02/02 14:14:25;;;;;;;14.00;9.30;;;;;;;;;;5034734;28;20037;-46
2024/02/02 14:16:51;;;;;;;18.67;12.05;;;;;;;;;;5032725;28;20449;-52
2024/02/02 14:19:18;;;;;;;22.38;10.77;;;;;;;;;;5032934;28;20040;-51
2024/02/02 14:21:44;;;;;;;18.08;10.07;;;;;;;;;;5032904;28;20037;-49
2024/02/02 14:24:11;;;;;;;15.85;10.23;;;;;;;;;;5037821;28;20116;-50
2024/02/02 14:26:47;;;;;;;13.57;8.90;;;;;;;;;;5055013;28;20428;-51
2024/02/02 14:29:14;;;;;;;16.50;11.38;;;;;;;;;;5038642;28;20049;-52
2024/02/02 14:31:40;;;;;;;15.25;9.75;;;;;;;;;;5051321;28;20022;-47